11°C
Gosport, Hampshire, United Kingdom
Language:  English
Updated07/04/2020 20:35:00 
 

Nearby METAR Reports

 

EGHI - Southampton Wx Centre, United Kingdom
Distance from station: NW 15mi, 24km
Updated: 07-Apr-2020 13:20:00
NOT Current
Clear
Clear
 Wind from SE
Wind: SE 6 mph , 9 km/h
Temperature: 17°C
Dew Point: 3°C
Humidity: 39%
Barometer: 1029 hPa
Summary: Clear
Visibility: greater than 7 miles , 10 km
2020/04/07 12:20 EGHI 071220Z 13005KT 070V190 CAVOK 17/03 Q1029
EGHH - Bournemouth Airport, United Kingdom
Distance from station: W 30mi, 49km
Updated: 07-Apr-2020 17:20:00
NOT Current
Clear
Clear
 Wind from varies
Wind: varies 3 mph , 6 km/h
Temperature: 15°C
Dew Point: 1°C
Humidity: 39%
Barometer: 1027 hPa
Summary: Clear
Visibility: greater than 7 miles , 10 km
2020/04/07 16:20 EGHH 071620Z VRB03KT CAVOK 15/01 Q1027
EGVP - Middle Wallop Airfield, United Kingdom
Distance from station: NW 31mi, 49km
Updated: 07-Apr-2020 19:50:00
Mostly cloudy
Mostly cloudy
 Wind from SSW
Wind: SSW 1 mph , 2 km/h
Temperature: 14°C
Dew Point: 2°C
Humidity: 44%
Barometer: 1027 hPa
Clouds: Mostly cloudy
Visibility: 6 miles , 10 km
Cloud details: Few Clouds 2134 m
Mostly cloudy 3962 m
2020/04/07 18:50 EGVP 071850Z AUTO 20001KT 9999 FEW070/// BKN130/// 14/02 Q1027
 
EGVO - RAF Odiham, United Kingdom
Distance from station: NNE 32mi, 52km
Updated: 07-Apr-2020 20:20:00
Clear
Clear
 Wind from SSE
Wind: SSE 2 mph , 4 km/h
Temperature: 12°C
Dew Point: 5°C
Humidity: 63%
Barometer: 1027 hPa
Summary: Clear
Visibility: greater than 7 miles , 10 km
2020/04/07 19:20 EGVO 071920Z 16002KT CAVOK 12/05 Q1027 NOSIG RMK BLU BLU
EGKA - Shoreham Airport, United Kingdom
Distance from station: E 37mi, 59km
Updated: 07-Apr-2020 17:50:00
NOT Current
Clear
Clear
 Wind from ESE
Wind: ESE 3 mph , 6 km/h
Temperature: 14°C
Dew Point: 4°C
Humidity: 51%
Barometer: 1027 hPa
Summary: Clear
Visibility: greater than 7 miles , 10 km
2020/04/07 16:50 EGKA 071650Z 12003KT CAVOK 14/04 Q1027
EGDM - Boscombe Down, United Kingdom
Distance from station: NW 38mi, 61km
Updated: 07-Apr-2020 19:50:00
Mostly cloudy
Mostly cloudy
 Wind from SW
Wind: SW 1 mph , 2 km/h
Temperature: 14°C
Dew Point: 2°C
Humidity: 44%
Barometer: 1026 hPa
Clouds: Mostly cloudy
Visibility: 6 miles , 10 km
Cloud details: Partly cloudy 1829 m
Mostly cloudy 3962 m
2020/04/07 18:50 EGDM 071850Z AUTO 22001KT 9999 SCT060/// BKN130/// 14/02 Q1026
 
EGLF - Farnborough, United Kingdom
Distance from station: NNE 38mi, 61km
Updated: 07-Apr-2020 20:20:00
Clear
Clear
 Wind from S
Wind: S 2 mph , 4 km/h
Temperature: 14°C
Dew Point: 5°C
Humidity: 55%
Barometer: 1027 hPa
Clouds: Clear
Visibility: 6 miles , 10 km
2020/04/07 19:20 EGLF 071920Z AUTO 18002KT 9999 NCD 14/05 Q1027
EGKK - Gatwick Airport, United Kingdom
Distance from station: ENE 49mi, 78km
Updated: 07-Apr-2020 20:20:00
Clear
Clear
 Wind from ENE
Wind: ENE 2 mph , 4 km/h
Temperature: 14°C
Dew Point: 2°C
Humidity: 44%
Barometer: 1027 hPa
Summary: Clear
Visibility: greater than 7 miles , 10 km
2020/04/07 19:20 EGKK 071920Z 07002KT CAVOK 14/02 Q1027
EGLL - Heathrow Airport, United Kingdom
Distance from station: NNE 57mi, 91km
Updated: 07-Apr-2020 20:20:00
Clear
Clear
 Wind from S
Wind: S 3 mph , 6 km/h
Temperature: 15°C
Dew Point: 5°C
Humidity: 51%
Barometer: 1027 hPa
Clouds: Clear
Visibility: 6 miles , 10 km
2020/04/07 19:20 EGLL 071920Z AUTO 18003KT 9999 NCD 15/05 Q1027 NOSIG
 
EGUB - RAF Benson, United Kingdom
Distance from station: N 58mi, 93km
Updated: 07-Apr-2020 20:20:00
Clear
Clear
 Wind from S
Wind: S 6 mph , 9 km/h
Temperature: 13°C
Dew Point: 5°C
Humidity: 59%
Barometer: 1026 hPa
Summary: Clear
Visibility: greater than 7 miles , 10 km
2020/04/07 19:20 EGUB 071920Z 17005KT CAVOK 13/05 Q1026 NOSIG RMK BLU BLU
EGWU - RAF Northolt, United Kingdom
Distance from station: NNE 62mi, 99km
Updated: 07-Apr-2020 19:50:00
Clear
Clear
 Wind from SSE
Wind: SSE 6 mph , 9 km/h
Temperature: 15°C
Dew Point: 4°C
Humidity: 48%
Barometer: 1027 hPa
Summary: Clear
Visibility: greater than 7 miles , 10 km
2020/04/07 18:50 EGWU 071850Z 15005KT CAVOK 15/04 Q1027 NOSIG RMK BLU BLU
EGKB - Biggin Hill Airport, United Kingdom
Distance from station: NE 62mi, 100km
Updated: 07-Apr-2020 20:20:00
Clear
Clear
 Wind from E
Wind: E 3 mph , 6 km/h
Temperature: 11°C
Dew Point: 2°C
Humidity: 54%
Barometer: 1027 hPa
Summary: Clear
Visibility: greater than 7 miles , 10 km
2020/04/07 19:20 EGKB 071920Z 08003KT CAVOK 11/02 Q1027
 
EGDY - RNAS Yeovilton, United Kingdom
Distance from station: WNW 66mi, 107km
Updated: 07-Apr-2020 20:22:00
Clear
Clear
 Wind from ENE
Wind: ENE 3 mph , 6 km/h
Temperature: 12°C
Dew Point: 3°C
Humidity: 54%
Barometer: 1026 hPa
Summary: Clear
Visibility: greater than 7 miles , 10 km
2020/04/07 19:22 EGDY 071922Z 06003KT CAVOK 12/03 Q1026 NOSIG RMK BLU BLU
EGUO - Colerne Airfield, United Kingdom
Distance from station: NW 67mi, 108km
Updated: 14-Feb-2019 22:50:00
NOT Current
Clear
Clear
 Wind from ENE
Wind: ENE 1 mph , 2 km/h
Temperature: 1°C
Dew Point: 0°C
Humidity: 93%
Barometer: 1029 hPa
Summary: Clear
Visibility: greater than 7 miles , 10 km
2019/02/14 22:50 EGUO 142250Z 06001KT CAVOK 01/00 Q1029 BLU NOSIG
EGVA - RAF Fairford, United Kingdom
Distance from station: NNW 67mi, 108km
Updated: 07-Apr-2020 19:56:00
Mostly cloudy
Mostly cloudy
 Wind from W
Wind: W 3 mph , 6 km/h
Temperature: 15°C
Dew Point: 3°C
Humidity: 45%
Barometer: 1026.4 hPa
Clouds: Mostly cloudy
Visibility: 6 miles , 10 km
Cloud details: Mostly cloudy 3658 m
2020/04/07 18:56 EGVA 071856Z AUTO 28003KT 9999 BKN120 15/03 A3031 RMK AO2 SLP268 T01450033 $
 
EGVN - RAF Brize Norton, United Kingdom
Distance from station: NNW 71mi, 114km
Updated: 07-Apr-2020 20:20:00
Clear
Clear
 Wind from W
Wind: W 2 mph , 4 km/h
Temperature: 14°C
Dew Point: 4°C
Humidity: 51%
Barometer: 1026 hPa
Summary: Clear
Visibility: greater than 7 miles , 10 km
2020/04/07 19:20 EGVN 071920Z 26002KT CAVOK 14/04 Q1026 NOSIG RMK BLU BLU
EGLC - London City Airport, United Kingdom
Distance from station: NE 71mi, 115km
Updated: 07-Apr-2020 20:20:00
Clear
Clear
 Wind from E
Wind: E 9 mph , 15 km/h
Temperature: 13°C
Dew Point: 8°C
Humidity: 72%
Barometer: 1027 hPa
Clouds: Clear
Visibility: 6 miles , 10 km
2020/04/07 19:20 EGLC 071920Z AUTO 08008KT 9999 NCD 13/08 Q1027
EGGD - Bristol Airport, United Kingdom
Distance from station: WNW 80mi, 128km
Updated: 07-Apr-2020 20:20:00
Clear
Clear
 Wind from SE
Wind: SE 5 mph , 7 km/h
Temperature: 13°C
Dew Point: 3°C
Humidity: 51%
Barometer: 1026 hPa
Clouds: Clear
Visibility: 6 miles , 10 km
2020/04/07 19:20 EGGD 071920Z AUTO 13004KT 9999 NCD 13/03 Q1026
 
LFRC - Cherbourg-Maupertus Airport, France
Distance from station: S 81mi, 130km
Updated: 07-Apr-2020 20:30:00
Clear
Clear
 Wind from ENE
Wind: ENE 8 mph , 13 km/h
Temperature: 10°C
Wind Chill: 8°C
Dew Point: 5°C
Humidity: 71%
Barometer: 1026 hPa
Summary: Clear
Visibility: greater than 7 miles , 10 km
2020/04/07 19:30 LFRC 071930Z AUTO 07007KT CAVOK 10/05 Q1026
EGGW - Luton Airport, United Kingdom
Distance from station: NNE 82mi, 132km
Updated: 07-Apr-2020 20:20:00
Clear
Clear
 Wind from ESE
Wind: ESE 8 mph , 13 km/h
Temperature: 13°C
Dew Point: 3°C
Humidity: 51%
Barometer: 1027 hPa
Clouds: Clear
Visibility: 6 miles , 10 km
2020/04/07 19:20 EGGW 071920Z AUTO 11007KT 9999 NCD 13/03 Q1027